sensor_id;sensor_type;location;lat;lon;timestamp;pressure;altitude;pressure_sealevel;temperature;humidity
5053;BME280;2545;50.892;5.740;2022-12-07T00:01:29;56404.28;;;-142.21;100.00
5053;BME280;2545;50.892;5.740;2022-12-07T00:03:56;56406.22;;;-142.21;100.00
5053;BME280;2545;50.892;5.740;2022-12-07T00:06:26;56433.69;;;-142.21;100.00
5053;BME280;2545;50.892;5.740;2022-12-07T00:08:51;56425.84;;;-142.21;100.00
5053;BME280;2545;50.892;5.740;2022-12-07T00:11:19;56437.59;;;-142.21;100.00
5053;BME280;2545;50.892;5.740;2022-12-07T00:13:46;56414.06;;;-142.21;100.00
5053;BME280;2545;50.892;5.740;2022-12-07T00:16:15;56421.91;;;-142.21;100.00
5053;BME280;2545;50.892;5.740;2022-12-07T00:18:43;56463.09;;;-142.21;100.00
5053;BME280;2545;50.892;5.740;2022-12-07T00:21:18;56394.47;;;-142.21;100.00
5053;BME280;2545;50.892;5.740;2022-12-07T00:23:45;56419.97;;;-142.21;100.00
5053;BME280;2545;50.892;5.740;2022-12-07T00:26:16;56376.81;;;-142.21;100.00
5053;BME280;2545;50.892;5.740;2022-12-07T00:28:45;56439.56;;;-142.21;100.00
5053;BME280;2545;50.892;5.740;2022-12-07T00:31:12;56427.81;;;-142.21;100.00
5053;BME280;2545;50.892;5.740;2022-12-07T00:33:38;56418.00;;;-142.21;100.00
5053;BME280;2545;50.892;5.740;2022-12-07T00:36:10;56445.44;;;-142.21;100.00
5053;BME280;2545;50.892;5.740;2022-12-07T00:38:37;56412.13;;;-142.21;100.00
5053;BME280;2545;50.892;5.740;2022-12-07T00:41:05;56470.94;;;-142.21;100.00
5053;BME280;2545;50.892;5.740;2022-12-07T00:43:32;56435.66;;;-142.21;100.00
5053;BME280;2545;50.892;5.740;2022-12-07T00:45:57;56404.28;;;-142.21;100.00
5053;BME280;2545;50.892;5.740;2022-12-07T00:48:23;56396.44;;;-142.21;100.00
5053;BME280;2545;50.892;5.740;2022-12-07T00:50:49;56451.34;;;-142.21;100.00
5053;BME280;2545;50.892;5.740;2022-12-07T00:53:15;56437.59;;;-142.21;100.00
5053;BME280;2545;50.892;5.740;2022-12-07T00:55:41;56437.59;;;-142.21;100.00
5053;BME280;2545;50.892;5.740;2022-12-07T00:58:07;56453.28;;;-142.21;100.00
5053;BME280;2545;50.892;5.740;2022-12-07T01:00:32;56400.34;;;-142.21;100.00
5053;BME280;2545;50.892;5.740;2022-12-07T01:02:58;56386.63;;;-142.21;100.00
5053;BME280;2545;50.892;5.740;2022-12-07T01:05:24;56431.72;;;-142.21;100.00
5053;BME280;2545;50.892;5.740;2022-12-07T01:07:49;56410.16;;;-142.21;100.00
5053;BME280;2545;50.892;5.740;2022-12-07T01:10:14;56410.16;;;-142.21;100.00
5053;BME280;2545;50.892;5.740;2022-12-07T01:12:40;56390.53;;;-142.21;100.00
5053;BME280;2545;50.892;5.740;2022-12-07T01:15:06;56421.91;;;-142.21;100.00
5053;BME280;2545;50.892;5.740;2022-12-07T01:17:32;56414.06;;;-142.21;100.00
5053;BME280;2545;50.892;5.740;2022-12-07T01:19:57;56418.00;;;-142.21;100.00
5053;BME280;2545;50.892;5.740;2022-12-07T01:22:22;56427.81;;;-142.21;100.00
5053;BME280;2545;50.892;5.740;2022-12-07T01:24:48;56402.31;;;-142.21;100.00
5053;BME280;2545;50.892;5.740;2022-12-07T01:27:14;56467.03;;;-142.21;100.00
5053;BME280;2545;50.892;5.740;2022-12-07T01:29:39;56427.81;;;-142.21;100.00
5053;BME280;2545;50.892;5.740;2022-12-07T01:32:05;56392.50;;;-142.21;100.00
5053;BME280;2545;50.892;5.740;2022-12-07T01:34:30;56443.50;;;-142.21;100.00
5053;BME280;2545;50.892;5.740;2022-12-07T01:36:55;56400.34;;;-142.21;100.00
5053;BME280;2545;50.892;5.740;2022-12-07T01:39:21;56429.75;;;-142.21;100.00
5053;BME280;2545;50.892;5.740;2022-12-07T01:41:46;56443.50;;;-142.21;100.00
5053;BME280;2545;50.892;5.740;2022-12-07T01:46:53;56453.28;;;-142.21;100.00
5053;BME280;2545;50.892;5.740;2022-12-07T01:49:44;56423.88;;;-142.21;100.00
5053;BME280;2545;50.892;5.740;2022-12-07T01:52:16;56412.13;;;-142.21;100.00
5053;BME280;2545;50.892;5.740;2022-12-07T01:54:47;56423.88;;;-142.21;100.00
5053;BME280;2545;50.892;5.740;2022-12-07T01:57:15;56468.97;;;-142.21;100.00
5053;BME280;2545;50.892;5.740;2022-12-07T01:59:42;56414.06;;;-142.21;100.00
5053;BME280;2545;50.892;5.740;2022-12-07T02:02:14;56408.19;;;-142.21;100.00
5053;BME280;2545;50.892;5.740;2022-12-07T02:04:43;56404.28;;;-142.21;100.00
5053;BME280;2545;50.892;5.740;2022-12-07T02:07:08;56445.44;;;-142.21;100.00
5053;BME280;2545;50.892;5.740;2022-12-07T02:09:34;56427.81;;;-142.21;100.00
5053;BME280;2545;50.892;5.740;2022-12-07T02:11:59;56421.91;;;-142.21;100.00
5053;BME280;2545;50.892;5.740;2022-12-07T02:14:24;56386.63;;;-142.21;100.00
5053;BME280;2545;50.892;5.740;2022-12-07T02:22:48;56410.16;;;-142.21;100.00
5053;BME280;2545;50.892;5.740;2022-12-07T02:28:19;56398.38;;;-142.21;100.00
5053;BME280;2545;50.892;5.740;2022-12-07T02:30:52;56410.16;;;-142.21;100.00
5053;BME280;2545;50.892;5.740;2022-12-07T02:33:26;56414.06;;;-142.21;100.00
5053;BME280;2545;50.892;5.740;2022-12-07T02:35:59;56429.75;;;-142.21;100.00
5053;BME280;2545;50.892;5.740;2022-12-07T02:38:43;56425.84;;;-142.21;100.00
5053;BME280;2545;50.892;5.740;2022-12-07T02:41:16;56416.03;;;-142.21;100.00
5053;BME280;2545;50.892;5.740;2022-12-07T02:43:47;56435.66;;;-142.21;100.00
5053;BME280;2545;50.892;5.740;2022-12-07T02:46:38;56398.38;;;-142.21;100.00
5053;BME280;2545;50.892;5.740;2022-12-07T02:49:24;56443.50;;;-142.21;100.00
5053;BME280;2545;50.892;5.740;2022-12-07T02:52:00;56433.69;;;-142.21;100.00
5053;BME280;2545;50.892;5.740;2022-12-07T02:54:25;56418.00;;;-142.21;100.00
5053;BME280;2545;50.892;5.740;2022-12-07T02:56:58;56443.50;;;-142.21;100.00
5053;BME280;2545;50.892;5.740;2022-12-07T03:05:05;56382.69;;;-142.21;100.00
5053;BME280;2545;50.892;5.740;2022-12-07T03:07:45;56429.75;;;-142.21;100.00
5053;BME280;2545;50.892;5.740;2022-12-07T03:10:31;56441.53;;;-142.21;100.00
5053;BME280;2545;50.892;5.740;2022-12-07T03:15:40;56443.50;;;-142.21;100.00
5053;BME280;2545;50.892;5.740;2022-12-07T03:18:09;56414.06;;;-142.21;100.00
5053;BME280;2545;50.892;5.740;2022-12-07T03:20:38;56408.19;;;-142.21;100.00
5053;BME280;2545;50.892;5.740;2022-12-07T03:23:08;56410.16;;;-142.21;100.00
5053;BME280;2545;50.892;5.740;2022-12-07T03:25:35;56423.88;;;-142.21;100.00
5053;BME280;2545;50.892;5.740;2022-12-07T03:28:05;56421.91;;;-142.21;100.00
5053;BME280;2545;50.892;5.740;2022-12-07T03:31:00;56414.06;;;-142.21;100.00
5053;BME280;2545;50.892;5.740;2022-12-07T03:33:53;56470.94;;;-142.21;100.00
5053;BME280;2545;50.892;5.740;2022-12-07T03:36:33;56443.50;;;-142.21;100.00
5053;BME280;2545;50.892;5.740;2022-12-07T03:39:08;56414.06;;;-142.21;100.00
5053;BME280;2545;50.892;5.740;2022-12-07T03:41:37;56404.28;;;-142.21;100.00
5053;BME280;2545;50.892;5.740;2022-12-07T03:44:04;56392.50;;;-142.21;100.00
5053;BME280;2545;50.892;5.740;2022-12-07T03:49:22;56433.69;;;-142.21;100.00
5053;BME280;2545;50.892;5.740;2022-12-07T03:52:02;56423.88;;;-142.21;100.00
5053;BME280;2545;50.892;5.740;2022-12-07T03:55:08;56388.59;;;-142.21;100.00
5053;BME280;2545;50.892;5.740;2022-12-07T03:57:36;56433.69;;;-142.21;100.00
5053;BME280;2545;50.892;5.740;2022-12-07T04:00:05;56427.81;;;-142.21;100.00
5053;BME280;2545;50.892;5.740;2022-12-07T04:02:32;56418.00;;;-142.21;100.00
5053;BME280;2545;50.892;5.740;2022-12-07T04:04:58;56384.66;;;-142.21;100.00
5053;BME280;2545;50.892;5.740;2022-12-07T04:07:23;56421.91;;;-142.21;100.00
5053;BME280;2545;50.892;5.740;2022-12-07T04:09:49;56392.50;;;-142.21;100.00
5053;BME280;2545;50.892;5.740;2022-12-07T04:12:14;56400.34;;;-142.21;100.00
5053;BME280;2545;50.892;5.740;2022-12-07T04:14:40;56406.22;;;-142.21;100.00
5053;BME280;2545;50.892;5.740;2022-12-07T04:17:05;56431.72;;;-142.21;100.00
5053;BME280;2545;50.892;5.740;2022-12-07T04:19:33;56398.38;;;-142.21;100.00
5053;BME280;2545;50.892;5.740;2022-12-07T04:22:01;56414.06;;;-142.21;100.00
5053;BME280;2545;50.892;5.740;2022-12-07T04:24:27;56502.31;;;-142.21;100.00
5053;BME280;2545;50.892;5.740;2022-12-07T04:26:52;56400.34;;;-142.21;100.00
5053;BME280;2545;50.892;5.740;2022-12-07T04:29:18;56451.34;;;-142.21;100.00
5053;BME280;2545;50.892;5.740;2022-12-07T04:31:44;56429.75;;;-142.21;100.00
5053;BME280;2545;50.892;5.740;2022-12-07T04:34:09;56410.16;;;-142.21;100.00
5053;BME280;2545;50.892;5.740;2022-12-07T04:36:35;56406.22;;;-142.21;100.00
5053;BME280;2545;50.892;5.740;2022-12-07T04:39:01;56396.44;;;-142.21;100.00
5053;BME280;2545;50.892;5.740;2022-12-07T04:41:27;56406.22;;;-142.21;100.00
5053;BME280;2545;50.892;5.740;2022-12-07T04:43:58;56394.47;;;-142.21;100.00
5053;BME280;2545;50.892;5.740;2022-12-07T04:46:25;56410.16;;;-142.21;100.00
5053;BME280;2545;50.892;5.740;2022-12-07T04:48:51;56429.75;;;-142.21;100.00
5053;BME280;2545;50.892;5.740;2022-12-07T04:51:20;56427.81;;;-142.21;100.00
5053;BME280;2545;50.892;5.740;2022-12-07T04:53:46;56431.72;;;-142.21;100.00
5053;BME280;2545;50.892;5.740;2022-12-07T04:56:11;56461.13;;;-142.21;100.00
5053;BME280;2545;50.892;5.740;2022-12-07T04:58:37;56437.59;;;-142.21;100.00
5053;BME280;2545;50.892;5.740;2022-12-07T05:01:02;56447.41;;;-142.21;100.00
5053;BME280;2545;50.892;5.740;2022-12-07T05:03:27;56392.50;;;-142.21;100.00
5053;BME280;2545;50.892;5.740;2022-12-07T05:05:53;56427.81;;;-142.21;100.00
5053;BME280;2545;50.892;5.740;2022-12-07T05:08:18;56437.59;;;-142.21;100.00
5053;BME280;2545;50.892;5.740;2022-12-07T05:10:43;56388.59;;;-142.21;100.00
5053;BME280;2545;50.892;5.740;2022-12-07T05:13:09;56435.66;;;-142.21;100.00
5053;BME280;2545;50.892;5.740;2022-12-07T05:15:34;56386.63;;;-142.21;100.00
5053;BME280;2545;50.892;5.740;2022-12-07T05:18:00;56419.97;;;-142.21;100.00
5053;BME280;2545;50.892;5.740;2022-12-07T05:20:26;56416.03;;;-142.21;100.00
5053;BME280;2545;50.892;5.740;2022-12-07T05:22:51;56416.03;;;-142.21;100.00
5053;BME280;2545;50.892;5.740;2022-12-07T05:25:16;56443.50;;;-142.21;100.00
5053;BME280;2545;50.892;5.740;2022-12-07T05:27:41;56398.38;;;-142.21;100.00
5053;BME280;2545;50.892;5.740;2022-12-07T05:30:07;56433.69;;;-142.21;100.00
5053;BME280;2545;50.892;5.740;2022-12-07T05:32:32;56425.84;;;-142.21;100.00
5053;BME280;2545;50.892;5.740;2022-12-07T05:34:58;56433.69;;;-142.21;100.00
5053;BME280;2545;50.892;5.740;2022-12-07T05:37:23;56380.75;;;-142.21;100.00
5053;BME280;2545;50.892;5.740;2022-12-07T05:39:48;56423.88;;;-142.21;100.00
5053;BME280;2545;50.892;5.740;2022-12-07T05:42:14;56429.75;;;-142.21;100.00
5053;BME280;2545;50.892;5.740;2022-12-07T05:44:41;56396.44;;;-142.21;100.00
5053;BME280;2545;50.892;5.740;2022-12-07T05:47:07;56392.50;;;-142.21;100.00
5053;BME280;2545;50.892;5.740;2022-12-07T05:49:32;56429.75;;;-142.21;100.00
5053;BME280;2545;50.892;5.740;2022-12-07T05:51:58;56449.38;;;-142.21;100.00
5053;BME280;2545;50.892;5.740;2022-12-07T05:54:24;56398.38;;;-142.21;100.00
5053;BME280;2545;50.892;5.740;2022-12-07T05:56:50;56421.91;;;-142.21;100.00
5053;BME280;2545;50.892;5.740;2022-12-07T05:59:15;56412.13;;;-142.21;100.00
5053;BME280;2545;50.892;5.740;2022-12-07T06:04:19;56396.44;;;-142.21;100.00
5053;BME280;2545;50.892;5.740;2022-12-07T06:06:44;56416.03;;;-142.21;100.00
5053;BME280;2545;50.892;5.740;2022-12-07T06:09:10;56443.50;;;-142.21;100.00
5053;BME280;2545;50.892;5.740;2022-12-07T06:11:37;56445.44;;;-142.21;100.00
5053;BME280;2545;50.892;5.740;2022-12-07T06:14:21;56435.66;;;-142.21;100.00
5053;BME280;2545;50.892;5.740;2022-12-07T06:16:47;56451.34;;;-142.21;100.00
5053;BME280;2545;50.892;5.740;2022-12-07T06:19:13;56437.59;;;-142.21;100.00
5053;BME280;2545;50.892;5.740;2022-12-07T06:21:38;56429.75;;;-142.21;100.00
5053;BME280;2545;50.892;5.740;2022-12-07T06:24:03;56404.28;;;-142.21;100.00
5053;BME280;2545;50.892;5.740;2022-12-07T06:26:29;56402.31;;;-142.21;100.00
5053;BME280;2545;50.892;5.740;2022-12-07T06:28:54;56398.38;;;-142.21;100.00
5053;BME280;2545;50.892;5.740;2022-12-07T06:31:20;56439.56;;;-142.21;100.00
5053;BME280;2545;50.892;5.740;2022-12-07T06:33:45;56433.69;;;-142.21;100.00
5053;BME280;2545;50.892;5.740;2022-12-07T06:36:11;56476.81;;;-142.21;100.00
5053;BME280;2545;50.892;5.740;2022-12-07T06:38:37;56425.84;;;-142.21;100.00
5053;BME280;2545;50.892;5.740;2022-12-07T06:41:02;56416.03;;;-142.21;100.00
5053;BME280;2545;50.892;5.740;2022-12-07T06:43:28;56368.97;;;-142.21;100.00
5053;BME280;2545;50.892;5.740;2022-12-07T06:45:53;56443.50;;;-142.21;100.00
5053;BME280;2545;50.892;5.740;2022-12-07T06:48:18;56437.59;;;-142.21;100.00
5053;BME280;2545;50.892;5.740;2022-12-07T06:50:45;56449.38;;;-142.21;100.00
5053;BME280;2545;50.892;5.740;2022-12-07T06:53:10;56445.44;;;-142.21;100.00
5053;BME280;2545;50.892;5.740;2022-12-07T06:55:35;56425.84;;;-142.21;100.00
5053;BME280;2545;50.892;5.740;2022-12-07T06:58:01;56455.25;;;-142.21;100.00
5053;BME280;2545;50.892;5.740;2022-12-07T07:00:27;56441.53;;;-142.21;100.00
5053;BME280;2545;50.892;5.740;2022-12-07T07:02:53;56421.91;;;-142.21;100.00
5053;BME280;2545;50.892;5.740;2022-12-07T07:05:18;56416.03;;;-142.21;100.00
5053;BME280;2545;50.892;5.740;2022-12-07T07:07:43;56461.13;;;-142.21;100.00
5053;BME280;2545;50.892;5.740;2022-12-07T07:10:09;56441.53;;;-142.21;100.00
5053;BME280;2545;50.892;5.740;2022-12-07T07:12:34;56378.78;;;-142.21;100.00
5053;BME280;2545;50.892;5.740;2022-12-07T07:15:00;56402.31;;;-142.21;100.00
5053;BME280;2545;50.892;5.740;2022-12-07T07:17:25;56353.28;;;-142.21;100.00
5053;BME280;2545;50.892;5.740;2022-12-07T07:19:50;56412.13;;;-142.21;100.00
5053;BME280;2545;50.892;5.740;2022-12-07T07:22:15;56437.59;;;-142.21;100.00
5053;BME280;2545;50.892;5.740;2022-12-07T07:24:41;56425.84;;;-142.21;100.00
5053;BME280;2545;50.892;5.740;2022-12-07T07:27:06;56402.31;;;-142.21;100.00
5053;BME280;2545;50.892;5.740;2022-12-07T07:29:31;56443.50;;;-142.21;100.00
5053;BME280;2545;50.892;5.740;2022-12-07T07:31:57;56414.06;;;-142.21;100.00
5053;BME280;2545;50.892;5.740;2022-12-07T07:34:22;56400.34;;;-142.21;100.00
5053;BME280;2545;50.892;5.740;2022-12-07T07:36:47;56382.69;;;-142.21;100.00
5053;BME280;2545;50.892;5.740;2022-12-07T07:39:13;56408.19;;;-142.21;100.00
5053;BME280;2545;50.892;5.740;2022-12-07T07:41:38;56421.91;;;-142.21;100.00
5053;BME280;2545;50.892;5.740;2022-12-07T07:44:04;56435.66;;;-142.21;100.00
5053;BME280;2545;50.892;5.740;2022-12-07T07:46:29;56431.72;;;-142.21;100.00
5053;BME280;2545;50.892;5.740;2022-12-07T07:48:54;56398.38;;;-142.21;100.00
5053;BME280;2545;50.892;5.740;2022-12-07T07:51:20;56433.69;;;-142.21;100.00
5053;BME280;2545;50.892;5.740;2022-12-07T07:53:45;56463.09;;;-142.21;100.00
5053;BME280;2545;50.892;5.740;2022-12-07T07:56:11;56461.13;;;-142.21;100.00
5053;BME280;2545;50.892;5.740;2022-12-07T07:58:36;56439.56;;;-142.21;100.00
5053;BME280;2545;50.892;5.740;2022-12-07T08:01:05;56439.56;;;-142.21;100.00
5053;BME280;2545;50.892;5.740;2022-12-07T08:03:31;56410.16;;;-142.21;100.00
5053;BME280;2545;50.892;5.740;2022-12-07T08:05:56;56453.28;;;-142.21;100.00
5053;BME280;2545;50.892;5.740;2022-12-07T08:08:21;56435.66;;;-142.21;100.00
5053;BME280;2545;50.892;5.740;2022-12-07T08:10:47;56451.34;;;-142.21;100.00
5053;BME280;2545;50.892;5.740;2022-12-07T08:13:15;56414.06;;;-142.21;100.00
5053;BME280;2545;50.892;5.740;2022-12-07T08:15:43;56441.53;;;-142.21;100.00
5053;BME280;2545;50.892;5.740;2022-12-07T08:18:09;56429.75;;;-142.21;100.00
5053;BME280;2545;50.892;5.740;2022-12-07T08:20:36;56443.50;;;-142.21;100.00
5053;BME280;2545;50.892;5.740;2022-12-07T08:23:03;56439.56;;;-142.21;100.00
5053;BME280;2545;50.892;5.740;2022-12-07T08:25:28;56431.72;;;-142.21;100.00
5053;BME280;2545;50.892;5.740;2022-12-07T08:27:54;56416.03;;;-142.21;100.00
5053;BME280;2545;50.892;5.740;2022-12-07T08:30:20;56408.19;;;-142.21;100.00
5053;BME280;2545;50.892;5.740;2022-12-07T08:32:46;56453.28;;;-142.21;100.00
5053;BME280;2545;50.892;5.740;2022-12-07T08:35:13;56457.22;;;-142.21;100.00
5053;BME280;2545;50.892;5.740;2022-12-07T08:37:39;56431.72;;;-142.21;100.00
5053;BME280;2545;50.892;5.740;2022-12-07T08:40:05;56419.97;;;-142.21;100.00
5053;BME280;2545;50.892;5.740;2022-12-07T08:42:30;56461.13;;;-142.21;100.00
5053;BME280;2545;50.892;5.740;2022-12-07T08:45:04;56402.31;;;-142.21;100.00
5053;BME280;2545;50.892;5.740;2022-12-07T08:47:30;56404.28;;;-142.21;100.00
5053;BME280;2545;50.892;5.740;2022-12-07T08:49:55;56425.84;;;-142.21;100.00
5053;BME280;2545;50.892;5.740;2022-12-07T08:52:21;56425.84;;;-142.21;100.00
5053;BME280;2545;50.892;5.740;2022-12-07T08:54:46;56449.38;;;-142.21;100.00
5053;BME280;2545;50.892;5.740;2022-12-07T08:57:12;56429.75;;;-142.21;100.00
5053;BME280;2545;50.892;5.740;2022-12-07T08:59:37;56406.22;;;-142.21;100.00
5053;BME280;2545;50.892;5.740;2022-12-07T09:02:04;56461.13;;;-142.21;100.00
5053;BME280;2545;50.892;5.740;2022-12-07T09:04:30;56423.88;;;-142.21;100.00
5053;BME280;2545;50.892;5.740;2022-12-07T09:06:55;56431.72;;;-142.21;100.00
5053;BME280;2545;50.892;5.740;2022-12-07T09:09:21;56447.41;;;-142.21;100.00
5053;BME280;2545;50.892;5.740;2022-12-07T09:11:46;56410.16;;;-142.21;100.00
5053;BME280;2545;50.892;5.740;2022-12-07T09:14:12;56437.59;;;-142.21;100.00
5053;BME280;2545;50.892;5.740;2022-12-07T09:16:38;56396.44;;;-142.21;100.00
5053;BME280;2545;50.892;5.740;2022-12-07T09:19:03;56457.22;;;-142.21;100.00
5053;BME280;2545;50.892;5.740;2022-12-07T09:21:29;56421.91;;;-142.21;100.00
5053;BME280;2545;50.892;5.740;2022-12-07T09:23:54;56419.97;;;-142.21;100.00
5053;BME280;2545;50.892;5.740;2022-12-07T09:26:20;56427.81;;;-142.21;100.00
5053;BME280;2545;50.892;5.740;2022-12-07T09:28:45;56423.88;;;-142.21;100.00
5053;BME280;2545;50.892;5.740;2022-12-07T09:31:10;56416.03;;;-142.21;100.00
5053;BME280;2545;50.892;5.740;2022-12-07T09:33:35;56459.19;;;-142.21;100.00
5053;BME280;2545;50.892;5.740;2022-12-07T09:36:01;56445.44;;;-142.21;100.00
5053;BME280;2545;50.892;5.740;2022-12-07T09:38:27;56404.28;;;-142.21;100.00
5053;BME280;2545;50.892;5.740;2022-12-07T09:40:55;56429.75;;;-142.21;100.00
5053;BME280;2545;50.892;5.740;2022-12-07T09:43:23;56418.00;;;-142.21;100.00
5053;BME280;2545;50.892;5.740;2022-12-07T09:45:54;56433.69;;;-142.21;100.00
5053;BME280;2545;50.892;5.740;2022-12-07T09:48:23;56435.66;;;-142.21;100.00
5053;BME280;2545;50.892;5.740;2022-12-07T09:50:52;56419.97;;;-142.21;100.00
5053;BME280;2545;50.892;5.740;2022-12-07T09:53:26;56467.03;;;-142.21;100.00
5053;BME280;2545;50.892;5.740;2022-12-07T09:55:53;56421.91;;;-142.21;100.00
5053;BME280;2545;50.892;5.740;2022-12-07T09:58:23;56414.06;;;-142.21;100.00
5053;BME280;2545;50.892;5.740;2022-12-07T10:00:52;56402.31;;;-142.21;100.00
5053;BME280;2545;50.892;5.740;2022-12-07T10:03:19;56441.53;;;-142.21;100.00
5053;BME280;2545;50.892;5.740;2022-12-07T10:05:46;56431.72;;;-142.21;100.00
5053;BME280;2545;50.892;5.740;2022-12-07T10:08:14;56406.22;;;-142.21;100.00
5053;BME280;2545;50.892;5.740;2022-12-07T10:10:41;56414.06;;;-142.21;100.00
5053;BME280;2545;50.892;5.740;2022-12-07T10:13:12;56441.53;;;-142.21;100.00
5053;BME280;2545;50.892;5.740;2022-12-07T10:15:54;56419.97;;;-142.21;100.00
5053;BME280;2545;50.892;5.740;2022-12-07T10:18:33;56419.97;;;-142.21;100.00
5053;BME280;2545;50.892;5.740;2022-12-07T10:21:13;56402.31;;;-142.21;100.00
5053;BME280;2545;50.892;5.740;2022-12-07T10:24:00;56423.88;;;-142.21;100.00
5053;BME280;2545;50.892;5.740;2022-12-07T10:26:29;56427.81;;;-142.21;100.00
5053;BME280;2545;50.892;5.740;2022-12-07T10:28:58;56425.84;;;-142.21;100.00
5053;BME280;2545;50.892;5.740;2022-12-07T10:31:24;56416.03;;;-142.21;100.00
5053;BME280;2545;50.892;5.740;2022-12-07T10:38:59;56451.34;;;-142.21;100.00
5053;BME280;2545;50.892;5.740;2022-12-07T10:41:25;56392.50;;;-142.21;100.00
5053;BME280;2545;50.892;5.740;2022-12-07T10:43:53;56465.06;;;-142.21;100.00
5053;BME280;2545;50.892;5.740;2022-12-07T10:46:46;56384.66;;;-142.21;100.00
5053;BME280;2545;50.892;5.740;2022-12-07T10:55:17;56449.38;;;-142.21;100.00
5053;BME280;2545;50.892;5.740;2022-12-07T11:00:50;56429.75;;;-142.21;100.00
5053;BME280;2545;50.892;5.740;2022-12-07T11:03:30;56425.84;;;-142.21;100.00
5053;BME280;2545;50.892;5.740;2022-12-07T11:06:27;56402.31;;;-142.21;100.00
5053;BME280;2545;50.892;5.740;2022-12-07T11:11:34;56410.16;;;-142.21;100.00
5053;BME280;2545;50.892;5.740;2022-12-07T11:22:36;56423.88;;;-142.21;100.00
5053;BME280;2545;50.892;5.740;2022-12-07T11:30:23;56425.84;;;-142.21;100.00
5053;BME280;2545;50.892;5.740;2022-12-07T11:38:10;56408.19;;;-142.21;100.00
5053;BME280;2545;50.892;5.740;2022-12-07T11:40:36;56429.75;;;-142.21;100.00
5053;BME280;2545;50.892;5.740;2022-12-07T11:43:21;56419.97;;;-142.21;100.00
5053;BME280;2545;50.892;5.740;2022-12-07T11:48:41;56429.75;;;-142.21;100.00
5053;BME280;2545;50.892;5.740;2022-12-07T11:51:11;56402.31;;;-142.21;100.00
5053;BME280;2545;50.892;5.740;2022-12-07T11:54:12;56398.38;;;-142.21;100.00
5053;BME280;2545;50.892;5.740;2022-12-07T11:56:40;56402.31;;;-142.21;100.00
5053;BME280;2545;50.892;5.740;2022-12-07T11:59:19;56402.31;;;-142.21;100.00
5053;BME280;2545;50.892;5.740;2022-12-07T12:06:53;56410.16;;;-142.21;100.00
5053;BME280;2545;50.892;5.740;2022-12-07T12:09:26;56431.72;;;-142.21;100.00
5053;BME280;2545;50.892;5.740;2022-12-07T12:15:05;56406.22;;;-142.21;100.00
5053;BME280;2545;50.892;5.740;2022-12-07T12:18:12;56416.03;;;-142.21;100.00
5053;BME280;2545;50.892;5.740;2022-12-07T12:21:02;56408.19;;;-142.21;100.00
5053;BME280;2545;50.892;5.740;2022-12-07T12:25:59;56370.94;;;-142.21;100.00
5053;BME280;2545;50.892;5.740;2022-12-07T12:28:41;56437.59;;;-142.21;100.00
5053;BME280;2545;50.892;5.740;2022-12-07T12:33:47;56425.84;;;-142.21;100.00
5053;BME280;2545;50.892;5.740;2022-12-07T12:54:21;56416.03;;;-142.21;100.00
5053;BME280;2545;50.892;5.740;2022-12-07T12:57:09;56419.97;;;-142.21;100.00
5053;BME280;2545;50.892;5.740;2022-12-07T12:59:41;56402.31;;;-142.21;100.00
5053;BME280;2545;50.892;5.740;2022-12-07T13:02:26;56457.22;;;-142.21;100.00
5053;BME280;2545;50.892;5.740;2022-12-07T13:04:55;56419.97;;;-142.21;100.00
5053;BME280;2545;50.892;5.740;2022-12-07T13:13:01;56437.59;;;-142.21;100.00
5053;BME280;2545;50.892;5.740;2022-12-07T13:26:18;56406.22;;;-142.21;100.00
5053;BME280;2545;50.892;5.740;2022-12-07T13:28:49;56421.91;;;-142.21;100.00
5053;BME280;2545;50.892;5.740;2022-12-07T13:34:38;56402.31;;;-142.21;100.00
5053;BME280;2545;50.892;5.740;2022-12-07T13:37:26;56402.31;;;-142.21;100.00
5053;BME280;2545;50.892;5.740;2022-12-07T13:39:57;56400.34;;;-142.21;100.00
5053;BME280;2545;50.892;5.740;2022-12-07T13:42:32;56398.38;;;-142.21;100.00
5053;BME280;2545;50.892;5.740;2022-12-07T13:45:00;56431.72;;;-142.21;100.00
5053;BME280;2545;50.892;5.740;2022-12-07T13:47:35;56414.06;;;-142.21;100.00
5053;BME280;2545;50.892;5.740;2022-12-07T13:50:29;56382.69;;;-142.21;100.00
5053;BME280;2545;50.892;5.740;2022-12-07T13:52:57;56433.69;;;-142.21;100.00
5053;BME280;2545;50.892;5.740;2022-12-07T13:55:23;56416.03;;;-142.21;100.00
5053;BME280;2545;50.892;5.740;2022-12-07T13:57:53;56437.59;;;-142.21;100.00
5053;BME280;2545;50.892;5.740;2022-12-07T14:00:29;56378.78;;;-142.21;100.00
5053;BME280;2545;50.892;5.740;2022-12-07T14:02:56;56388.59;;;-142.21;100.00
5053;BME280;2545;50.892;5.740;2022-12-07T14:05:27;56402.31;;;-142.21;100.00
5053;BME280;2545;50.892;5.740;2022-12-07T14:08:02;56418.00;;;-142.21;100.00
5053;BME280;2545;50.892;5.740;2022-12-07T14:10:36;56408.19;;;-142.21;100.00
5053;BME280;2545;50.892;5.740;2022-12-07T14:13:03;56427.81;;;-142.21;100.00
5053;BME280;2545;50.892;5.740;2022-12-07T14:15:50;56421.91;;;-142.21;100.00
5053;BME280;2545;50.892;5.740;2022-12-07T14:18:48;56421.91;;;-142.21;100.00
5053;BME280;2545;50.892;5.740;2022-12-07T14:23:39;56392.50;;;-142.21;100.00
5053;BME280;2545;50.892;5.740;2022-12-07T14:26:09;56414.06;;;-142.21;100.00
5053;BME280;2545;50.892;5.740;2022-12-07T14:28:36;56412.13;;;-142.21;100.00
5053;BME280;2545;50.892;5.740;2022-12-07T14:31:03;56406.22;;;-142.21;93.04
5053;BME280;2545;50.892;5.740;2022-12-07T14:33:29;56419.97;;;-142.21;93.43
5053;BME280;2545;50.892;5.740;2022-12-07T14:35:55;56414.06;;;-142.21;92.62
5053;BME280;2545;50.892;5.740;2022-12-07T14:38:23;56384.66;;;-142.21;93.18
5053;BME280;2545;50.892;5.740;2022-12-07T14:40:49;56418.00;;;-142.21;95.29
5053;BME280;2545;50.892;5.740;2022-12-07T14:43:16;56429.75;;;-142.21;96.75
5053;BME280;2545;50.892;5.740;2022-12-07T14:45:42;56406.22;;;-142.21;96.32
5053;BME280;2545;50.892;5.740;2022-12-07T14:48:10;56406.22;;;-142.21;97.38
5053;BME280;2545;50.892;5.740;2022-12-07T14:50:39;56414.06;;;-142.21;99.75
5053;BME280;2545;50.892;5.740;2022-12-07T14:53:16;56394.47;;;-142.21;100.00
5053;BME280;2545;50.892;5.740;2022-12-07T14:55:42;56410.16;;;-142.21;100.00
5053;BME280;2545;50.892;5.740;2022-12-07T14:58:13;56402.31;;;-142.21;100.00